Pagrindinis puslapis
METAR-TAF:

METAR-TAF

Oro uostai :

Gazipaşa, Turkija

platuma: 36-17-56N, ilguma: 32-18-00E, Aukštis: 15 m

Dabartinis oras

Ataskaita buvo paskelbta 1 valandą ir 1 minutes, ne 07:50 UTC
Vėjas 2 kt nuo kintamojo kryptimis
Temperatūra 21°C
Drėgmė 60%
Slėgis 1019 hPa
Matomumas 10 km arba daugiau
Išsisklaidę debesys ne aukštis 3000 ft
Su prošvaistėmis ne aukštis 10000 ft

METAR: LTFG 270750Z VRB02KT 9999 SCT030 BKN100 21/13 Q1019

Laikas: 11:51 (08:51 UTC)

Prognozė

Ataskaita buvo paskelbta 1 valandą ir 11 minutes, ne 07:40 UTC
Prognozė galioja nuo 27 metu 09 UTC su 27 metu 18 UTC
Vėjas 8 kt iš Pietų/Pietvakarių
Matomumas 10 km arba daugiau
Išsisklaidę debesys ne aukštis 3000 ft
Su prošvaistėmis ne aukštis 10000 ft
Laikinai
nuo 27 metu 11 UTC su 27 metu 15 UTC
Mažai debesys ne aukštis 2000 ft, Liūtiniai kamuoliniai debesys.
Su prošvaistėmis ne aukštis 3000 ft
lietus

TAF: LTFG 270740Z 2709/2718 21008KT 9999 SCT030 BKN100 TEMPO 2711/2715 -SHRA FEW020CB BKN030

Orai ataskaitas ir orų prognozės (METAR, TAF).

turimą stotys yra geltonos ir raudonos taškus žemėlapyje.

Perkelti pele per norėdami pamatyti stoties vardą.

Tada spustelėkite, norėdami matyti oro stebėjimo ir prognozės.

Norėdami pakeisti žemėlapį: spustelėkite ant žalios mygtukų su juodo kryžiaus žemyn,; žalią mygtuką su brūkšneliu, jei norite nutolinti; arba žalių rodyklių gretimoms žemėlapius.


METAR-TAF: